createdAt,value
2018-12-03T00:00:15.752Z,13.83
2018-12-03T00:02:43.429Z,14.47
2018-12-03T00:05:11.077Z,15.32
2018-12-03T00:07:38.721Z,18.75
2018-12-03T00:10:07.936Z,15.40
2018-12-03T00:12:35.583Z,14.40
2018-12-03T00:15:03.850Z,16.20
2018-12-03T00:17:31.514Z,13.43
2018-12-03T00:19:59.154Z,15.43
2018-12-03T00:22:26.835Z,13.20
2018-12-03T00:24:54.801Z,15.03
2018-12-03T00:27:22.459Z,17.13
2018-12-03T00:29:50.143Z,14.20
2018-12-03T00:32:17.850Z,20.73
2018-12-03T00:34:45.489Z,20.90
2018-12-03T00:37:13.112Z,18.42
2018-12-03T00:39:40.822Z,18.90
2018-12-03T00:42:08.471Z,20.60
2018-12-03T00:44:36.141Z,23.20
2018-12-03T00:47:04.004Z,19.40
2018-12-03T00:49:31.666Z,20.60
2018-12-03T00:51:59.282Z,23.02
2018-12-03T00:54:26.933Z,25.55
2018-12-03T00:56:54.582Z,23.63
2018-12-03T00:59:22.225Z,24.40
2018-12-03T01:01:49.910Z,20.63
2018-12-03T01:04:17.585Z,21.20
2018-12-03T01:06:45.261Z,21.70
2018-12-03T01:09:12.956Z,22.60
2018-12-03T01:11:40.614Z,21.30
2018-12-03T01:14:08.257Z,24.53
2018-12-03T01:16:35.937Z,24.37
2018-12-03T01:19:03.805Z,21.50
2018-12-03T01:21:31.466Z,23.33
2018-12-03T01:23:59.129Z,24.45
2018-12-03T01:26:26.753Z,22.70
2018-12-03T01:28:54.454Z,21.93
2018-12-03T01:31:22.095Z,25.50
2018-12-03T01:33:49.791Z,27.53
2018-12-03T01:36:17.488Z,24.60
2018-12-03T01:38:45.129Z,21.48
2018-12-03T01:41:12.861Z,22.07
2018-12-03T01:43:40.529Z,20.90
2018-12-03T01:46:08.177Z,20.40
2018-12-03T01:48:35.913Z,20.43
2018-12-03T01:51:03.988Z,23.10
2018-12-03T01:53:31.666Z,25.63
2018-12-03T01:55:59.287Z,25.07
2018-12-03T01:58:26.938Z,25.25
2018-12-03T02:00:55.626Z,23.83
2018-12-03T02:03:23.418Z,23.07
2018-12-03T02:05:51.069Z,23.33
2018-12-03T02:08:18.730Z,23.05
2018-12-03T02:10:46.430Z,25.20
2018-12-03T02:13:14.112Z,20.90
2018-12-03T02:15:41.807Z,24.53
2018-12-03T02:18:09.520Z,20.87
2018-12-03T02:20:37.174Z,23.57
2018-12-03T02:23:04.828Z,25.68
2018-12-03T02:25:32.459Z,20.57
2018-12-03T02:28:00.128Z,20.57
2018-12-03T02:30:27.858Z,20.77
2018-12-03T02:32:55.449Z,24.80
2018-12-03T02:35:23.122Z,22.13
2018-12-03T02:37:50.745Z,20.40
2018-12-03T02:40:18.394Z,19.17
2018-12-03T02:42:46.169Z,20.47
2018-12-03T02:45:14.365Z,26.33
2018-12-03T02:47:42.021Z,24.32
2018-12-03T02:50:14.025Z,19.60
2018-12-03T02:52:41.717Z,22.20
2018-12-03T02:55:10.759Z,21.70
2018-12-03T02:57:38.543Z,22.37
2018-12-03T03:00:11.329Z,19.40
2018-12-03T03:02:38.998Z,20.60
2018-12-03T03:05:09.246Z,19.35
2018-12-03T03:07:36.981Z,24.30
2018-12-03T03:10:11.132Z,22.37
2018-12-03T03:12:39.045Z,21.13
2018-12-03T03:15:10.902Z,22.83
2018-12-03T03:17:38.868Z,23.10
2018-12-03T03:20:08.899Z,23.83
2018-12-03T03:22:36.619Z,24.60
2018-12-03T03:25:04.670Z,22.80
2018-12-03T03:27:32.329Z,23.97
2018-12-03T03:29:59.957Z,25.60
2018-12-03T03:32:27.645Z,24.87
2018-12-03T03:34:55.457Z,24.10
2018-12-03T03:37:23.086Z,21.80
2018-12-03T03:39:50.765Z,26.40
2018-12-03T03:42:18.511Z,23.17
2018-12-03T03:44:46.275Z,23.18
2018-12-03T03:47:13.978Z,23.40
2018-12-03T03:49:41.555Z,23.67
2018-12-03T03:52:16.096Z,21.13
2018-12-03T03:54:43.728Z,22.73
2018-12-03T03:57:11.365Z,24.70
2018-12-03T03:59:39.038Z,22.35
2018-12-03T04:02:06.742Z,25.53
2018-12-03T04:04:34.437Z,22.97
2018-12-03T04:07:02.149Z,24.60
2018-12-03T04:09:29.826Z,22.17
2018-12-03T04:11:57.574Z,21.62
2018-12-03T04:14:25.327Z,24.77
2018-12-03T04:16:52.950Z,27.10
2018-12-03T04:19:20.622Z,23.70
2018-12-03T04:21:48.386Z,29.73
2018-12-03T04:24:16.035Z,27.60
2018-12-03T04:26:43.736Z,26.87
2018-12-03T04:29:11.406Z,22.20
2018-12-03T04:31:39.122Z,23.60
2018-12-03T04:34:07.106Z,22.65
2018-12-03T04:36:34.873Z,24.82
2018-12-03T04:39:05.615Z,19.12
2018-12-03T04:41:33.346Z,20.37
2018-12-03T04:44:01.076Z,19.00
2018-12-03T04:46:28.810Z,17.95
2018-12-03T04:48:56.497Z,18.37
2018-12-03T04:51:24.229Z,14.63
2018-12-03T04:53:51.873Z,15.37
2018-12-03T04:56:19.533Z,15.77
2018-12-03T04:58:47.336Z,20.05
2018-12-03T05:01:15.858Z,14.65
2018-12-03T05:03:43.566Z,20.47
2018-12-03T05:06:11.314Z,15.63
2018-12-03T05:08:38.969Z,17.90
2018-12-03T05:11:06.738Z,16.73
2018-12-03T05:13:34.504Z,19.75
2018-12-03T05:16:02.372Z,16.93
2018-12-03T05:18:30.169Z,14.23
2018-12-03T05:20:57.828Z,20.05
2018-12-03T05:23:25.497Z,15.33
2018-12-03T05:25:53.226Z,17.43
2018-12-03T05:28:21.019Z,17.77
2018-12-03T05:30:48.684Z,15.80
2018-12-03T05:33:16.335Z,16.90
2018-12-03T05:35:43.969Z,21.07
2018-12-03T05:38:11.637Z,14.10
2018-12-03T05:40:39.402Z,17.25
2018-12-03T05:43:07.112Z,21.70
2018-12-03T05:45:34.797Z,17.40
2018-12-03T05:48:02.454Z,28.23
2018-12-03T05:50:30.114Z,20.50
2018-12-03T05:52:57.871Z,20.45
2018-12-03T05:55:25.514Z,15.78
2018-12-03T05:57:53.130Z,19.10
2018-12-03T06:00:22.341Z,18.43
2018-12-03T06:02:49.998Z,18.90
2018-12-03T06:05:17.675Z,20.30
2018-12-03T06:07:45.319Z,19.20
2018-12-03T06:10:18.564Z,15.55
2018-12-03T06:12:46.230Z,23.93
2018-12-03T06:15:16.098Z,20.32
2018-12-03T06:17:44.298Z,19.03
2018-12-03T06:20:13.897Z,19.80
2018-12-03T06:22:41.689Z,21.33
2018-12-03T06:25:13.252Z,20.60
2018-12-03T06:27:40.909Z,22.77
2018-12-03T06:30:19.205Z,19.62
2018-12-03T06:32:46.987Z,21.27
2018-12-03T06:35:15.644Z,22.80
2018-12-03T06:37:43.385Z,18.93
2018-12-03T06:40:28.797Z,25.40
2018-12-03T06:42:56.565Z,19.17
2018-12-03T06:45:25.147Z,23.47
2018-12-03T06:48:08.322Z,22.63
2018-12-03T06:50:35.993Z,17.90
2018-12-03T06:53:03.678Z,19.27
2018-12-03T06:55:31.372Z,23.12
2018-12-03T06:57:59.088Z,22.00
2018-12-03T07:00:26.817Z,22.80
2018-12-03T07:02:54.603Z,23.43
2018-12-03T07:05:22.270Z,25.50
2018-12-03T07:07:53.358Z,28.67
2018-12-03T07:10:22.349Z,24.73
2018-12-03T07:12:52.452Z,23.03
2018-12-03T07:15:21.478Z,20.57
2018-12-03T07:17:51.575Z,20.50
2018-12-03T07:20:19.295Z,22.23
2018-12-03T07:22:46.928Z,28.57
2018-12-03T07:25:14.669Z,21.42
2018-12-03T07:27:42.348Z,21.90
2018-12-03T07:30:17.588Z,20.80
2018-12-03T07:32:47.269Z,24.43
2018-12-03T07:35:14.520Z,22.30
2018-12-03T07:37:42.558Z,22.37
2018-12-03T07:40:11.577Z,20.30
2018-12-03T07:42:40.326Z,29.63
2018-12-03T07:45:24.787Z,25.87
2018-12-03T07:47:52.431Z,19.53
2018-12-03T07:50:21.779Z,21.07
2018-12-03T07:52:49.475Z,27.23
2018-12-03T07:55:20.506Z,21.50
2018-12-03T07:57:57.114Z,22.30
2018-12-03T08:00:27.905Z,18.70
2018-12-03T08:02:55.611Z,19.40
2018-12-03T08:05:23.318Z,18.83
2018-12-03T08:07:50.925Z,17.45
2018-12-03T08:10:18.896Z,18.33
2018-12-03T08:12:47.979Z,16.70
2018-12-03T08:15:17.599Z,13.83
2018-12-03T08:17:52.690Z,15.07
2018-12-03T08:20:24.469Z,15.10
2018-12-03T08:22:55.819Z,17.20
2018-12-03T08:25:24.219Z,14.60
2018-12-03T08:27:52.957Z,14.20
2018-12-03T08:30:20.687Z,15.03
2018-12-03T08:32:48.464Z,17.60
2018-12-03T08:35:17.534Z,15.70
2018-12-03T08:37:45.407Z,17.70
2018-12-03T08:40:18.516Z,16.63
2018-12-03T08:42:51.150Z,16.13
2018-12-03T08:45:20.068Z,16.27
2018-12-03T08:47:49.250Z,15.20
2018-12-03T08:50:20.633Z,16.30
2018-12-03T08:52:48.356Z,15.93
2018-12-03T08:55:16.028Z,16.10
2018-12-03T08:57:43.722Z,18.20
2018-12-03T09:00:14.977Z,15.60
2018-12-03T09:03:26.339Z,14.80
2018-12-03T09:05:54.074Z,11.30
2018-12-03T09:08:21.829Z,12.53
2018-12-03T09:10:50.087Z,15.45
2018-12-03T09:13:20.752Z,14.10
2018-12-03T09:16:03.234Z,12.30
2018-12-03T09:18:33.786Z,11.30
2018-12-03T09:21:01.638Z,18.47
2018-12-03T09:23:29.396Z,13.70
2018-12-03T09:25:57.129Z,13.40
2018-12-03T09:28:24.866Z,16.75
2018-12-03T09:30:52.598Z,10.50
2018-12-03T09:33:20.219Z,10.97
2018-12-03T09:35:47.971Z,9.07
2018-12-03T09:38:15.640Z,10.77
2018-12-03T09:40:43.302Z,10.53
2018-12-03T09:43:11.008Z,9.28
2018-12-03T09:45:39.183Z,11.53
2018-12-03T09:48:06.809Z,10.35
2018-12-03T09:50:34.526Z,7.37
2018-12-03T09:53:02.237Z,9.00
2018-12-03T09:55:31.714Z,10.90
2018-12-03T09:58:12.639Z,2.70
2018-12-03T10:00:40.630Z,4.87
2018-12-03T10:03:17.367Z,1.13
2018-12-03T10:05:49.663Z,2.20
2018-12-03T10:08:21.993Z,0.70
2018-12-03T10:10:53.078Z,0.60
2018-12-03T10:13:20.699Z,1.07
2018-12-03T10:15:48.421Z,0.98
2018-12-03T10:18:16.131Z,1.07
2018-12-03T10:20:48.474Z,0.70
2018-12-03T10:23:16.314Z,0.60
2018-12-03T10:25:45.018Z,0.50
2018-12-03T10:28:12.646Z,0.70
2018-12-03T10:30:40.345Z,0.78
2018-12-03T10:33:08.068Z,0.62
2018-12-03T10:35:38.080Z,0.85
2018-12-03T10:38:15.305Z,1.20
2018-12-03T10:40:49.145Z,4.80
2018-12-03T10:43:16.874Z,1.87
2018-12-03T10:45:44.562Z,2.73
2018-12-03T10:48:12.201Z,0.50
2018-12-03T10:50:40.545Z,0.50
2018-12-03T10:53:08.325Z,0.80
2018-12-03T10:55:41.509Z,0.60
2018-12-03T10:58:12.675Z,1.00
2018-12-03T11:00:46.152Z,0.60
2018-12-03T11:03:18.469Z,0.70
2018-12-03T11:05:52.431Z,0.67
2018-12-03T11:08:21.642Z,1.93
2018-12-03T11:10:50.479Z,0.60
2018-12-03T11:13:18.155Z,0.67
2018-12-03T11:15:45.929Z,1.00
2018-12-03T11:18:13.579Z,0.93
2018-12-03T11:20:41.309Z,0.53
2018-12-03T11:23:09.471Z,0.70
2018-12-03T11:25:41.074Z,0.60
2018-12-03T11:28:11.869Z,2.10
2018-12-03T11:30:50.535Z,0.83
2018-12-03T11:33:22.028Z,0.63
2018-12-03T11:35:50.535Z,0.50
2018-12-03T11:38:33.869Z,1.83
2018-12-03T11:41:01.580Z,0.70
2018-12-03T11:43:30.322Z,1.00
2018-12-03T11:45:58.283Z,0.60
2018-12-03T11:48:25.960Z,0.93
2018-12-03T11:50:54.431Z,0.60
2018-12-03T11:53:22.078Z,0.63
2018-12-03T11:55:49.791Z,0.65
2018-12-03T11:58:17.468Z,0.50
2018-12-03T12:00:45.209Z,0.70
2018-12-03T12:03:12.881Z,0.77
2018-12-03T12:05:40.572Z,2.63
2018-12-03T12:08:08.234Z,0.70
2018-12-03T12:10:35.907Z,1.22
2018-12-03T12:13:03.673Z,0.70
2018-12-03T12:15:31.410Z,0.60
2018-12-03T12:17:59.146Z,0.97
2018-12-03T12:20:27.012Z,1.23
2018-12-03T12:22:54.703Z,1.77
2018-12-03T12:25:22.338Z,1.27
2018-12-03T12:27:53.994Z,0.80
2018-12-03T12:30:21.683Z,0.60
2018-12-03T12:32:49.623Z,0.50
2018-12-03T12:35:17.372Z,0.93
2018-12-03T12:37:56.639Z,1.25
2018-12-03T12:40:18.642Z,1.93
2018-12-03T12:42:46.342Z,0.70
2018-12-03T12:45:26.551Z,2.15
2018-12-03T12:47:54.287Z,2.20
2018-12-03T12:50:22.034Z,0.80
2018-12-03T12:52:50.564Z,0.80
2018-12-03T12:55:18.228Z,1.50
2018-12-03T12:57:45.852Z,0.83
2018-12-03T13:00:16.286Z,0.70
2018-12-03T13:02:47.250Z,0.70
2018-12-03T13:05:14.979Z,1.10
2018-12-03T13:07:42.647Z,0.77
2018-12-03T13:10:13.891Z,5.35
2018-12-03T13:12:41.814Z,2.73
2018-12-03T13:15:13.442Z,0.70
2018-12-03T13:17:44.242Z,0.90
2018-12-03T13:20:14.996Z,0.83
2018-12-03T13:22:42.784Z,0.70
2018-12-03T13:25:14.134Z,0.70
2018-12-03T13:27:41.832Z,1.23
2018-12-03T13:30:13.627Z,1.43
2018-12-03T13:32:41.324Z,0.90
2018-12-03T13:35:12.258Z,0.60
2018-12-03T13:37:39.965Z,3.87
2018-12-03T13:40:12.700Z,1.03
2018-12-03T13:42:42.001Z,0.80
2018-12-03T13:45:17.479Z,0.67
2018-12-03T13:47:45.216Z,2.33
2018-12-03T13:50:17.453Z,1.30
2018-12-03T13:52:45.455Z,0.83
2018-12-03T13:55:16.190Z,0.67
2018-12-03T13:57:43.860Z,1.90
2018-12-03T14:00:19.479Z,1.10
2018-12-03T14:03:09.025Z,0.63
2018-12-03T14:05:48.616Z,0.70
2018-12-03T14:12:44.194Z,0.60
2018-12-03T14:17:27.908Z,0.70
2018-12-03T14:19:58.745Z,0.70
2018-12-03T14:22:41.185Z,0.60
2018-12-03T14:25:09.534Z,1.80
2018-12-03T14:27:37.226Z,0.80
2018-12-03T14:30:08.473Z,1.00
2018-12-03T14:32:36.184Z,0.60
2018-12-03T14:35:08.434Z,0.77
2018-12-03T14:37:36.138Z,0.70
2018-12-03T14:40:05.857Z,0.70
2018-12-03T14:42:34.505Z,2.40
2018-12-03T14:45:03.329Z,0.50
2018-12-03T14:47:30.965Z,0.50
2018-12-03T14:49:58.653Z,0.60
2018-12-03T14:52:26.371Z,0.50
2018-12-03T14:54:54.044Z,0.60
2018-12-03T14:57:21.767Z,0.60
2018-12-03T14:59:49.516Z,1.37
2018-12-03T15:02:17.213Z,0.70
2018-12-03T15:04:45.243Z,0.50
2018-12-03T15:07:13.513Z,1.07
2018-12-03T15:09:41.184Z,1.00
2018-12-03T15:12:08.949Z,0.93
2018-12-03T15:14:36.661Z,0.83
2018-12-03T15:17:04.357Z,1.97
2018-12-03T15:19:32.764Z,0.70
2018-12-03T15:22:00.480Z,0.60
2018-12-03T15:24:28.979Z,0.73
2018-12-03T15:26:56.770Z,1.10
2018-12-03T15:29:24.470Z,0.90
2018-12-03T15:31:53.238Z,2.22
2018-12-03T15:34:21.699Z,2.17
2018-12-03T15:36:49.555Z,0.80
2018-12-03T15:39:17.201Z,1.87
2018-12-03T15:41:44.896Z,4.53
2018-12-03T15:44:12.947Z,1.35
2018-12-03T15:46:42.187Z,1.42
2018-12-03T15:49:11.107Z,2.67
2018-12-03T15:51:38.777Z,1.33
2018-12-03T15:54:07.379Z,1.67
2018-12-03T15:56:35.182Z,2.67
2018-12-03T15:59:02.909Z,1.53
2018-12-03T16:01:30.798Z,3.33
2018-12-03T16:03:58.460Z,11.63
2018-12-03T16:06:26.844Z,2.22
2018-12-03T16:08:54.661Z,1.57
2018-12-03T16:11:23.267Z,1.90
2018-12-03T16:13:52.500Z,4.83
2018-12-03T16:16:21.408Z,4.60
2018-12-03T16:18:50.090Z,5.63
2018-12-03T16:21:18.760Z,6.43
2018-12-03T16:23:46.421Z,5.70
2018-12-03T16:26:14.590Z,4.33
2018-12-03T16:28:42.361Z,2.50
2018-12-03T16:31:11.013Z,5.83
2018-12-03T16:33:39.389Z,5.10
2018-12-03T16:36:07.123Z,2.67
2018-12-03T16:38:35.685Z,2.40
2018-12-03T16:41:03.406Z,2.23
2018-12-03T16:43:31.107Z,4.20
2018-12-03T16:45:59.495Z,2.20
2018-12-03T16:48:28.232Z,2.90
2018-12-03T16:50:55.988Z,2.33
2018-12-03T16:53:23.621Z,1.30
2018-12-03T16:55:51.351Z,1.42
2018-12-03T16:58:20.136Z,2.35
2018-12-03T17:00:48.230Z,3.40
2018-12-03T17:03:17.071Z,6.23
2018-12-03T17:05:45.693Z,3.37
2018-12-03T17:08:14.141Z,1.90
2018-12-03T17:10:42.358Z,3.23
2018-12-03T17:13:10.173Z,6.60
2018-12-03T17:15:38.422Z,2.33
2018-12-03T17:18:06.959Z,1.53
2018-12-03T17:21:01.807Z,3.23
2018-12-03T17:23:41.686Z,3.17
2018-12-03T17:26:10.178Z,2.10
2018-12-03T17:28:38.914Z,2.10
2018-12-03T17:31:06.567Z,1.43
2018-12-03T17:33:34.364Z,1.90
2018-12-03T17:36:02.579Z,1.52
2018-12-03T17:38:31.206Z,1.60
2018-12-03T17:41:00.664Z,1.83
2018-12-03T17:43:28.481Z,3.57
2018-12-03T17:45:56.428Z,4.10
2018-12-03T17:48:24.512Z,1.53
2018-12-03T17:51:23.391Z,2.10
2018-12-03T17:53:50.160Z,1.95
2018-12-03T17:56:17.417Z,1.85
2018-12-03T17:58:44.972Z,3.07
2018-12-03T18:01:11.197Z,3.62
2018-12-03T18:03:37.323Z,1.80
2018-12-03T18:06:03.561Z,3.70
2018-12-03T18:08:29.955Z,3.80
2018-12-03T18:10:56.942Z,2.63
2018-12-03T18:13:23.097Z,1.70
2018-12-03T18:15:49.331Z,6.30
2018-12-03T18:18:15.810Z,3.77
2018-12-03T18:20:42.493Z,2.47
2018-12-03T18:23:08.737Z,1.57
2018-12-03T18:25:35.867Z,1.20
2018-12-03T18:28:03.315Z,3.02
2018-12-03T18:30:29.558Z,2.30
2018-12-03T18:32:56.679Z,1.70
2018-12-03T18:35:23.484Z,3.50
2018-12-03T18:37:51.175Z,1.87
2018-12-03T18:40:17.549Z,2.73
2018-12-03T18:42:43.809Z,5.90
2018-12-03T18:45:10.101Z,1.80
2018-12-03T18:47:37.421Z,1.20
2018-12-03T18:50:08.564Z,2.70
2018-12-03T18:52:34.819Z,1.10
2018-12-03T18:55:01.063Z,1.20
2018-12-03T18:57:27.298Z,3.03
2018-12-03T18:59:53.510Z,6.20
2018-12-03T19:02:19.825Z,3.33
2018-12-03T19:04:46.073Z,1.00
2018-12-03T19:07:12.299Z,1.10
2018-12-03T19:09:38.704Z,1.20
2018-12-03T19:12:05.150Z,1.00
2018-12-03T19:14:31.329Z,1.10
2018-12-03T19:16:57.762Z,1.30
2018-12-03T19:19:24.110Z,3.00
2018-12-03T19:21:50.417Z,1.63
2018-12-03T19:24:16.586Z,1.40
2018-12-03T19:26:42.803Z,2.23
2018-12-03T19:29:09.059Z,1.60
2018-12-03T19:31:36.446Z,1.27
2018-12-03T19:34:02.981Z,0.67
2018-12-03T19:36:29.352Z,1.02
2018-12-03T19:38:55.528Z,1.00
2018-12-03T19:41:21.832Z,1.70
2018-12-03T19:43:48.117Z,1.10
2018-12-03T19:46:14.417Z,1.70
2018-12-03T19:48:41.348Z,2.90
2018-12-03T19:51:07.551Z,6.03
2018-12-03T19:53:33.788Z,3.40
2018-12-03T19:56:00.349Z,2.50
2018-12-03T19:58:26.791Z,1.80
2018-12-03T20:00:53.201Z,1.93
2018-12-03T20:03:19.361Z,1.00
2018-12-03T20:05:45.513Z,1.77
2018-12-03T20:08:11.734Z,2.30
2018-12-03T20:10:38.443Z,1.50
2018-12-03T20:13:04.846Z,2.33
2018-12-03T20:15:30.968Z,1.53
2018-12-03T20:17:57.274Z,3.73
2018-12-03T20:20:23.939Z,1.00
2018-12-03T20:22:51.310Z,1.03
2018-12-03T20:25:17.794Z,2.22
2018-12-03T20:27:44.841Z,3.70
2018-12-03T20:30:17.454Z,1.53
2018-12-03T20:32:43.742Z,4.07
2018-12-03T20:35:09.926Z,2.13
2018-12-03T20:37:38.244Z,1.70
2018-12-03T20:40:13.250Z,1.27
2018-12-03T20:42:39.609Z,1.90
2018-12-03T20:45:14.995Z,3.08
2018-12-03T20:47:49.267Z,1.20
2018-12-03T20:50:18.128Z,1.30
2018-12-03T20:52:47.439Z,1.53
2018-12-03T20:55:15.661Z,1.60
2018-12-03T20:57:41.937Z,1.20
2018-12-03T21:00:09.722Z,1.33
2018-12-03T21:02:36.132Z,1.10
2018-12-03T21:05:03.945Z,1.20
2018-12-03T21:07:30.233Z,1.97
2018-12-03T21:09:56.477Z,1.60
2018-12-03T21:12:22.743Z,2.30
2018-12-03T21:14:48.884Z,3.33
2018-12-03T21:17:15.313Z,1.30
2018-12-03T21:19:41.873Z,1.30
2018-12-03T21:22:07.970Z,1.00
2018-12-03T21:24:34.181Z,4.83
2018-12-03T21:27:00.258Z,1.67
2018-12-03T21:29:26.506Z,5.00
2018-12-03T21:31:53.251Z,4.23
2018-12-03T21:34:19.396Z,12.43
2018-12-03T21:36:45.689Z,5.57
2018-12-03T21:39:11.914Z,6.10
2018-12-03T21:41:38.153Z,1.73
2018-12-03T21:44:04.562Z,6.00
2018-12-03T21:46:30.832Z,2.77
2018-12-03T21:48:57.428Z,1.30
2018-12-03T21:51:23.694Z,1.13
2018-12-03T21:53:54.517Z,3.57
2018-12-03T21:56:21.476Z,1.00
2018-12-03T21:58:47.774Z,1.03
2018-12-03T22:01:14.042Z,1.00
2018-12-03T22:03:40.138Z,1.13
2018-12-03T22:06:06.352Z,1.47
2018-12-03T22:08:32.698Z,2.08
2018-12-03T22:10:59.070Z,6.87
2018-12-03T22:13:25.387Z,15.28
2018-12-03T22:15:51.503Z,13.10
2018-12-03T22:18:18.542Z,13.43
2018-12-03T22:20:44.769Z,11.60
2018-12-03T22:23:11.016Z,12.98
2018-12-03T22:25:37.456Z,17.30
2018-12-03T22:28:03.713Z,15.55
2018-12-03T22:30:29.918Z,15.83
2018-12-03T22:32:56.235Z,16.00
2018-12-03T22:38:04.910Z,14.20
2018-12-03T22:40:31.107Z,19.10
2018-12-03T22:42:57.215Z,16.93
2018-12-03T22:45:23.441Z,14.20
2018-12-03T22:47:49.661Z,18.77
2018-12-03T22:50:15.917Z,23.00
2018-12-03T22:52:42.140Z,13.97
2018-12-03T22:55:15.495Z,14.30
2018-12-03T22:57:41.693Z,13.43
2018-12-03T23:00:14.097Z,21.57
2018-12-03T23:02:40.294Z,12.67
2018-12-03T23:05:06.773Z,12.13
2018-12-03T23:07:33.113Z,14.37
2018-12-03T23:09:59.982Z,16.07
2018-12-03T23:12:26.314Z,13.10
2018-12-03T23:14:52.460Z,14.10
2018-12-03T23:17:18.926Z,7.93
2018-12-03T23:19:45.159Z,1.47
2018-12-03T23:22:11.527Z,1.33
2018-12-03T23:24:38.501Z,0.80
2018-12-03T23:27:04.834Z,0.80
2018-12-03T23:29:30.938Z,0.80
2018-12-03T23:31:57.127Z,0.90
2018-12-03T23:34:23.274Z,0.93
2018-12-03T23:36:49.660Z,1.45
2018-12-03T23:39:15.842Z,1.33
2018-12-03T23:41:41.944Z,0.70
2018-12-03T23:44:08.024Z,0.90
2018-12-03T23:46:34.306Z,0.70
2018-12-03T23:49:00.375Z,0.60
2018-12-03T23:51:26.506Z,1.60
2018-12-03T23:53:53.720Z,0.90
2018-12-03T23:56:19.822Z,1.10
2018-12-03T23:58:45.909Z,0.90
